Winesburg, Ohio
Current Conditions -  °F | °C
As of 9:53 AM on Thursday 23 Oct 2014 (Local Time) from KPHD Reporting Station
Overcast Overcast  
Wind Chill: 46°   Ceiling: 900
Heat Index: 49°   Visibility: 8mi
Dew Point: 45°   Wind: 7mph
Humidity: 86%   Direction: 340°NNW
Pressure: 30.21"   Gusts: NA
Location:  40.62°N, 81.7°W
Report Text: KPHD 231353Z AUTO 34006KT 8SM BKN009 OVC013 09/07 A3021 RMK AO2 SLP234 T00940072
Loading
Personal Weather Stations






























Interactive Weather Map
Tropical Storm Tracking
New forecast layout! Learn more

10-Day Weather Forecast

Advertisements
Track Severe Weather on mobile